Little, Indiana
Current Conditions -  °F | °C
As of 5:55 AM on Thursday 27 Nov 2014 (Local Time) from KDCY Reporting Station
Overcast Overcast  
Wind Chill: 20°   Ceiling: 2000
Heat Index: 29°   Visibility: 10mi
Dew Point: 26°   Wind: 10mph
Humidity: 88%   Direction: 330°NNW
Pressure: 30.29"   Gusts: NA
Location:  38.4723°N, 87.3105°W
Report Text: KDCY 271155Z AUTO 33009KT 10SM OVC020 M02/M03 A3029 RMK AO2 T10161034 10000 21016
Loading
Personal Weather Stations






























Interactive Weather Map New forecast layout! Learn more

10-Day Weather Forecast

Advertisements
Track Severe Weather on mobile